CheckWX is a tool to help pilots better visualize weather data.  It is not intended as a substitute for an official pre-flight weather briefing.

07:19:33 UTC

LFML TAF
Marseille Provence Airport
Marseille, France
TAF AMD LFML 190530Z 1905/2009 11005KT CAVOK TX29/1913Z TN17/2004Z BECMG 1907/1909 18012KT BECMG 1918/1920 VRB03KT BECMG 2000/2002 5000 BR BKN008 BECMG 2005/2007 NSW SCT013 BECMG 2007/2009 26007KT CAVOK

Jun-19@
05:00 UTC

Jun-19 @ 05:00 UTC

Jun-19@
07:00 UTC

Jun-19 @ 07:00 UTC

TAF AMD LFML 190530Z 1905/2009 11005KT CAVOK TX29/1913Z TN17/2004Z

Expired

Wind
  • 110° at 5 KTS
Cloud Levels
  • No significant clouds

Jun-19@
07:00 UTC

Jun-19 @ 07:00 UTC

Jun-19@
18:00 UTC

Jun-19 @ 18:00 UTC

BECMG 1907/1909 18012KT

Becoming

Becoming Conditions expected by Wed, Jun 19, 2019 @ 09:00 UTC

Wind
  • 180° at 12 KTS
Cloud Levels
  • No significant clouds

Jun-19@
18:00 UTC

Jun-19 @ 18:00 UTC

Jun-20@
00:00 UTC

Jun-20 @ 00:00 UTC

BECMG 1918/1920 VRB03KT

Becoming

Becoming Conditions expected by Wed, Jun 19, 2019 @ 20:00 UTC

Wind
  • Variable at 3 KTS
Cloud Levels
  • No significant clouds

Jun-20@
00:00 UTC

Jun-20 @ 00:00 UTC

Jun-20@
05:00 UTC

Jun-20 @ 05:00 UTC

BECMG 2000/2002 5000 BR BKN008

Becoming

Becoming Conditions expected by Thu, Jun 20, 2019 @ 02:00 UTC

Wind
  • Variable at 3 KTS
Conditions
Mist
Cloud Levels
  • Broken at 800' AGL

Jun-20@
05:00 UTC

Jun-20 @ 05:00 UTC

Jun-20@
07:00 UTC

Jun-20 @ 07:00 UTC

BECMG 2005/2007 NSW SCT013

Becoming

Becoming Conditions expected by Thu, Jun 20, 2019 @ 07:00 UTC

Wind
  • Variable at 3 KTS
Conditions
No significant weather
Cloud Levels
  • Scattered at 1,300' AGL

Jun-20@
07:00 UTC

Jun-20 @ 07:00 UTC

Jun-20@
09:00 UTC

Jun-20 @ 09:00 UTC

BECMG 2007/2009 26007KT CAVOK

Becoming

Becoming Conditions expected by Thu, Jun 20, 2019 @ 09:00 UTC

Wind
  • 260° at 7 KTS
Conditions
No significant weather
Cloud Levels
  • No significant clouds